createdAt,value
2018-09-13T00:01:40.128Z,20.47
2018-09-13T00:04:08.707Z,20.50
2018-09-13T00:06:37.500Z,20.54
2018-09-13T00:09:08.105Z,20.50
2018-09-13T00:11:36.856Z,20.46
2018-09-13T00:14:05.595Z,20.41
2018-09-13T00:16:34.531Z,20.39
2018-09-13T00:19:03.267Z,20.39
2018-09-13T00:21:31.906Z,20.39
2018-09-13T00:24:00.521Z,20.35
2018-09-13T00:26:29.529Z,20.29
2018-09-13T00:28:58.341Z,20.24
2018-09-13T00:31:28.540Z,20.24
2018-09-13T00:33:58.315Z,20.23
2018-09-13T00:36:27.036Z,20.19
2018-09-13T00:38:55.578Z,20.18
2018-09-13T00:41:24.109Z,20.14
2018-09-13T00:43:54.578Z,20.14
2018-09-13T00:46:27.305Z,20.14
2018-09-13T00:48:57.882Z,20.17
2018-09-13T00:51:27.237Z,20.11
2018-09-13T00:53:57.819Z,20.09
2018-09-13T00:56:29.116Z,20.09
2018-09-13T00:59:00.613Z,20.14
2018-09-13T01:01:32.023Z,20.17
2018-09-13T01:04:00.635Z,20.11
2018-09-13T01:06:29.303Z,20.11
2018-09-13T01:08:57.886Z,20.15
2018-09-13T01:11:26.603Z,20.14
2018-09-13T01:13:55.311Z,20.15
2018-09-13T01:16:23.975Z,20.14
2018-09-13T01:18:52.754Z,20.14
2018-09-13T01:21:21.265Z,20.11
2018-09-13T01:23:50.249Z,20.05
2018-09-13T01:26:18.776Z,19.98
2018-09-13T01:28:47.383Z,19.95
2018-09-13T01:31:15.986Z,19.95
2018-09-13T01:33:44.461Z,19.93
2018-09-13T01:36:13.027Z,19.94
2018-09-13T01:38:46.667Z,19.99
2018-09-13T01:41:15.192Z,19.95
2018-09-13T01:43:43.861Z,19.91
2018-09-13T01:46:12.511Z,19.89
2018-09-13T01:48:41.276Z,19.91
2018-09-13T01:51:09.773Z,19.91
2018-09-13T01:53:38.580Z,19.94
2018-09-13T01:56:07.121Z,19.90
2018-09-13T01:58:35.625Z,19.88
2018-09-13T02:01:04.160Z,19.84
2018-09-13T02:03:32.607Z,19.78
2018-09-13T02:06:01.381Z,19.74
2018-09-13T02:08:29.800Z,19.68
2018-09-13T02:10:58.235Z,19.67
2018-09-13T02:13:29.729Z,19.64
2018-09-13T02:15:58.314Z,19.58
2018-09-13T02:18:26.865Z,19.59
2018-09-13T02:20:55.429Z,19.60
2018-09-13T02:23:24.166Z,19.61
2018-09-13T02:25:53.065Z,19.63
2018-09-13T02:28:21.917Z,19.68
2018-09-13T02:30:50.468Z,19.68
2018-09-13T02:33:19.071Z,19.66
2018-09-13T02:35:47.761Z,19.62
2018-09-13T02:38:21.299Z,19.58
2018-09-13T02:40:49.902Z,19.61
2018-09-13T02:43:18.468Z,19.64
2018-09-13T02:45:47.185Z,19.71
2018-09-13T02:48:15.795Z,19.74
2018-09-13T02:50:44.519Z,19.74
2018-09-13T02:53:13.117Z,19.70
2018-09-13T02:55:41.843Z,19.71
2018-09-13T02:58:24.025Z,19.67
2018-09-13T03:00:52.504Z,19.58
2018-09-13T03:03:21.591Z,19.52
2018-09-13T03:05:50.156Z,19.48
2018-09-13T03:08:23.787Z,19.47
2018-09-13T03:10:52.302Z,19.46
2018-09-13T03:13:20.874Z,19.44
2018-09-13T03:15:49.432Z,19.42
2018-09-13T03:18:18.091Z,19.37
2018-09-13T03:20:46.849Z,19.38
2018-09-13T03:23:15.386Z,19.39
2018-09-13T03:25:43.956Z,19.43
2018-09-13T03:28:35.127Z,19.45
2018-09-13T03:31:03.738Z,19.47
2018-09-13T03:33:32.316Z,19.51
2018-09-13T03:36:01.093Z,19.51
2018-09-13T03:38:29.627Z,19.46
2018-09-13T03:40:58.446Z,19.36
2018-09-13T03:43:27.143Z,19.38
2018-09-13T03:45:55.750Z,19.30
2018-09-13T03:48:24.309Z,19.32
2018-09-13T03:50:52.917Z,19.36
2018-09-13T03:53:21.372Z,19.37
2018-09-13T03:55:50.036Z,19.39
2018-09-13T03:58:23.678Z,19.40
2018-09-13T04:00:52.494Z,19.44
2018-09-13T04:03:21.122Z,19.50
2018-09-13T04:05:49.745Z,19.40
2018-09-13T04:08:18.362Z,19.26
2018-09-13T04:10:47.154Z,19.22
2018-09-13T04:13:18.948Z,19.19
2018-09-13T04:15:47.719Z,19.18
2018-09-13T04:18:20.241Z,19.20
2018-09-13T04:21:01.617Z,19.24
2018-09-13T04:23:40.354Z,19.28
2018-09-13T04:26:08.982Z,19.26
2018-09-13T04:28:46.899Z,19.24
2018-09-13T04:31:15.786Z,19.25
2018-09-13T04:33:44.474Z,19.25
2018-09-13T04:36:13.355Z,19.27
2018-09-13T04:38:41.930Z,19.32
2018-09-13T04:41:10.668Z,19.39
2018-09-13T04:43:39.408Z,19.42
2018-09-13T04:46:08.140Z,19.47
2018-09-13T04:48:36.739Z,19.36
2018-09-13T04:51:05.344Z,19.27
2018-09-13T04:53:34.035Z,19.26
2018-09-13T04:56:02.614Z,19.25
2018-09-13T04:58:31.672Z,19.31
2018-09-13T05:01:00.211Z,19.34
2018-09-13T05:03:28.847Z,19.28
2018-09-13T05:05:57.379Z,19.27
2018-09-13T05:08:26.239Z,19.30
2018-09-13T05:10:54.856Z,19.29
2018-09-13T05:13:23.337Z,19.29
2018-09-13T05:15:51.978Z,19.32
2018-09-13T05:18:20.434Z,19.29
2018-09-13T05:20:48.970Z,19.24
2018-09-13T05:23:17.446Z,19.20
2018-09-13T05:25:46.005Z,19.13
2018-09-13T05:28:14.696Z,19.08
2018-09-13T05:30:43.580Z,19.07
2018-09-13T05:33:12.233Z,19.12
2018-09-13T05:35:40.695Z,19.20
2018-09-13T05:38:09.278Z,19.26
2018-09-13T05:40:37.899Z,19.30
2018-09-13T05:43:07.365Z,19.29
2018-09-13T05:45:36.439Z,19.30
2018-09-13T05:48:05.024Z,19.31
2018-09-13T05:50:34.854Z,19.32
2018-09-13T05:53:03.830Z,19.32
2018-09-13T05:55:32.420Z,19.33
2018-09-13T05:58:00.984Z,19.30
2018-09-13T06:00:34.248Z,19.27
2018-09-13T06:03:02.692Z,19.30
2018-09-13T06:05:31.174Z,19.32
2018-09-13T06:07:59.741Z,19.30
2018-09-13T06:10:28.270Z,19.30
2018-09-13T06:12:56.818Z,19.34
2018-09-13T06:15:25.336Z,19.39
2018-09-13T06:17:59.071Z,19.36
2018-09-13T06:20:32.609Z,19.36
2018-09-13T06:23:01.890Z,19.37
2018-09-13T06:25:30.647Z,19.38
2018-09-13T06:27:59.192Z,19.32
2018-09-13T06:30:28.540Z,19.31
2018-09-13T06:33:01.628Z,19.29
2018-09-13T06:35:30.280Z,19.32
2018-09-13T06:37:59.792Z,19.36
2018-09-13T06:40:28.484Z,19.35
2018-09-13T06:42:56.883Z,19.31
2018-09-13T06:45:25.447Z,19.31
2018-09-13T06:47:54.061Z,19.34
2018-09-13T06:50:22.561Z,19.39
2018-09-13T06:52:51.193Z,19.36
2018-09-13T06:55:19.703Z,19.36
2018-09-13T06:57:48.379Z,19.35
2018-09-13T07:00:17.288Z,19.29
2018-09-13T07:02:45.801Z,19.30
2018-09-13T07:05:14.306Z,19.32
2018-09-13T07:07:42.821Z,19.30
2018-09-13T07:10:11.641Z,19.24
2018-09-13T07:12:40.116Z,19.24
2018-09-13T07:15:08.803Z,19.30
2018-09-13T07:17:37.307Z,19.35
2018-09-13T07:20:06.608Z,19.42
2018-09-13T07:22:35.652Z,19.42
2018-09-13T07:25:04.906Z,19.44
2018-09-13T07:27:33.518Z,19.41
2018-09-13T07:30:02.160Z,19.38
2018-09-13T07:32:30.742Z,19.23
2018-09-13T07:34:59.362Z,19.11
2018-09-13T07:37:28.096Z,19.08
2018-09-13T07:40:01.786Z,19.15
2018-09-13T07:42:33.126Z,19.12
2018-09-13T07:45:01.790Z,19.15
2018-09-13T07:47:32.580Z,19.26
2018-09-13T07:50:01.346Z,19.40
2018-09-13T07:52:29.924Z,19.51
2018-09-13T07:54:58.576Z,19.57
2018-09-13T07:57:27.286Z,19.66
2018-09-13T07:59:55.797Z,19.72
2018-09-13T08:02:24.613Z,19.77
2018-09-13T08:04:53.280Z,19.76
2018-09-13T08:07:22.272Z,19.79
2018-09-13T08:09:50.954Z,19.81
2018-09-13T08:12:19.600Z,19.84
2018-09-13T08:14:49.494Z,19.80
2018-09-13T08:17:17.944Z,19.83
2018-09-13T08:19:46.557Z,19.79
2018-09-13T08:22:15.696Z,19.71
2018-09-13T08:24:44.241Z,19.68
2018-09-13T08:27:12.713Z,19.64
2018-09-13T08:29:41.288Z,19.52
2018-09-13T08:32:10.220Z,19.46
2018-09-13T08:34:38.961Z,19.45
2018-09-13T08:37:07.555Z,19.44
2018-09-13T08:39:36.090Z,19.53
2018-09-13T08:42:05.556Z,19.53
2018-09-13T08:44:34.088Z,19.45
2018-09-13T08:47:02.595Z,19.47
2018-09-13T08:49:31.401Z,19.43
2018-09-13T08:51:59.991Z,19.51
2018-09-13T08:54:28.508Z,19.52
2018-09-13T08:56:57.111Z,19.56
2018-09-13T08:59:25.847Z,19.60
2018-09-13T09:01:54.387Z,19.62
2018-09-13T09:04:23.012Z,19.55
2018-09-13T09:06:51.782Z,19.55
2018-09-13T09:09:20.304Z,19.61
2018-09-13T09:11:48.880Z,19.57
2018-09-13T09:14:17.389Z,19.53
2018-09-13T09:16:45.985Z,19.50
2018-09-13T09:19:14.650Z,19.43
2018-09-13T09:21:43.282Z,19.39
2018-09-13T09:24:11.967Z,19.39
2018-09-13T09:26:40.484Z,19.37
2018-09-13T09:29:09.190Z,19.38
2018-09-13T09:31:37.675Z,19.28
2018-09-13T09:34:06.195Z,19.28
2018-09-13T09:36:34.679Z,19.30
2018-09-13T09:39:03.603Z,19.30
2018-09-13T09:41:34.022Z,19.36
2018-09-13T09:44:02.750Z,19.43
2018-09-13T09:46:31.368Z,19.45
2018-09-13T09:48:59.977Z,19.48
2018-09-13T09:51:28.884Z,19.43
2018-09-13T09:53:57.478Z,19.40
2018-09-13T09:56:26.346Z,19.26
2018-09-13T09:59:04.453Z,19.23
2018-09-13T10:01:36.521Z,19.19
2018-09-13T10:04:05.576Z,19.18
2018-09-13T10:06:34.494Z,19.18
2018-09-13T10:09:03.280Z,19.23
2018-09-13T10:11:32.017Z,19.28
2018-09-13T10:14:00.885Z,19.24
2018-09-13T10:16:34.670Z,19.23
2018-09-13T10:21:13.744Z,19.28
2018-09-13T10:23:47.607Z,19.50
2018-09-13T10:26:21.291Z,19.61
2018-09-13T10:28:55.060Z,19.64
2018-09-13T10:31:30.211Z,19.66
2018-09-13T10:36:06.593Z,19.61
2018-09-13T10:38:44.774Z,19.64
2018-09-13T10:41:19.146Z,19.69
2018-09-13T10:43:52.902Z,19.67
2018-09-13T10:46:25.452Z,19.66
2018-09-13T10:48:59.403Z,19.66
2018-09-13T10:51:33.260Z,19.71
2018-09-13T10:54:11.337Z,19.80
2018-09-13T10:56:40.496Z,19.81
2018-09-13T10:59:10.011Z,19.92
2018-09-13T11:01:39.365Z,20.02
2018-09-13T11:04:09.551Z,20.06
2018-09-13T11:06:38.048Z,20.11
2018-09-13T11:09:07.528Z,20.18
2018-09-13T11:11:36.182Z,20.27
2018-09-13T11:14:15.301Z,20.34
2018-09-13T11:16:51.061Z,20.36
2018-09-13T11:19:19.974Z,20.35
2018-09-13T11:21:48.589Z,20.30
2018-09-13T11:24:17.063Z,20.21
2018-09-13T11:26:45.684Z,20.12
2018-09-13T11:29:14.222Z,20.03
2018-09-13T11:31:43.012Z,20.03
2018-09-13T11:34:11.595Z,19.97
2018-09-13T11:36:40.146Z,19.91
2018-09-13T11:39:11.097Z,19.85
2018-09-13T11:41:39.923Z,19.87
2018-09-13T11:44:09.316Z,19.95
2018-09-13T11:46:38.158Z,20.04
2018-09-13T11:49:06.840Z,20.11
2018-09-13T11:51:35.695Z,20.15
2018-09-13T11:54:04.582Z,20.17
2018-09-13T11:56:33.200Z,20.14
2018-09-13T11:59:02.001Z,20.14
2018-09-13T12:01:30.816Z,20.12
2018-09-13T12:03:59.274Z,20.11
2018-09-13T12:06:27.875Z,20.10
2018-09-13T12:08:56.498Z,20.02
2018-09-13T12:11:25.083Z,19.90
2018-09-13T12:13:54.045Z,19.83
2018-09-13T12:16:22.795Z,19.83
2018-09-13T12:18:51.556Z,19.86
2018-09-13T12:21:20.220Z,19.87
2018-09-13T12:23:48.906Z,19.84
2018-09-13T12:26:17.466Z,19.78
2018-09-13T12:28:46.023Z,19.77
2018-09-13T12:31:14.869Z,19.82
2018-09-13T12:33:43.597Z,19.84
2018-09-13T12:36:12.166Z,19.83
2018-09-13T12:38:40.947Z,19.77
2018-09-13T12:41:09.635Z,19.78
2018-09-13T12:43:38.231Z,19.74
2018-09-13T12:46:07.265Z,19.68
2018-09-13T12:48:49.443Z,19.61
2018-09-13T12:51:17.905Z,19.53
2018-09-13T12:53:47.974Z,19.54
2018-09-13T12:56:16.625Z,19.47
2018-09-13T12:58:45.400Z,19.48
2018-09-13T13:01:14.030Z,19.51
2018-09-13T13:03:42.835Z,19.51
2018-09-13T13:06:11.445Z,19.53
2018-09-13T13:08:40.062Z,19.48
2018-09-13T13:11:10.225Z,19.45
2018-09-13T13:13:39.511Z,19.47
2018-09-13T13:16:08.465Z,19.46
2018-09-13T13:18:46.594Z,19.48
2018-09-13T13:21:15.143Z,19.49
2018-09-13T13:23:44.090Z,19.52
2018-09-13T13:26:12.766Z,19.51
2018-09-13T13:28:41.357Z,19.52
2018-09-13T13:31:10.214Z,19.51
2018-09-13T13:33:38.637Z,19.49
2018-09-13T13:36:07.690Z,19.45
2018-09-13T13:38:41.433Z,19.39
2018-09-13T13:41:10.084Z,19.23
2018-09-13T13:43:38.710Z,19.16
2018-09-13T13:46:08.446Z,19.12
2018-09-13T13:48:37.158Z,19.09
2018-09-13T13:51:05.841Z,19.09
2018-09-13T13:53:34.403Z,19.11
2018-09-13T13:56:03.267Z,19.07
2018-09-13T13:58:32.077Z,19.07
2018-09-13T14:01:00.906Z,19.07
2018-09-13T14:03:29.413Z,19.03
2018-09-13T14:05:58.417Z,19.00
2018-09-13T14:08:27.206Z,18.99
2018-09-13T14:10:55.711Z,18.95
2018-09-13T14:13:24.233Z,18.91
2018-09-13T14:15:52.944Z,18.92
2018-09-13T14:18:21.513Z,18.96
2018-09-13T14:20:50.149Z,18.98
2018-09-13T14:23:18.702Z,18.97
2018-09-13T14:25:50.438Z,18.97
2018-09-13T14:28:19.043Z,18.96
2018-09-13T14:30:47.594Z,19.00
2018-09-13T14:33:16.145Z,19.03
2018-09-13T14:35:44.901Z,19.03
2018-09-13T14:38:13.375Z,18.97
2018-09-13T14:40:42.098Z,18.93
2018-09-13T14:43:10.698Z,18.89
2018-09-13T14:45:39.486Z,18.84
2018-09-13T14:48:08.082Z,18.79
2018-09-13T14:50:36.638Z,18.79
2018-09-13T14:53:05.254Z,18.75
2018-09-13T14:55:33.908Z,18.79
2018-09-13T14:58:02.802Z,18.77
2018-09-13T15:00:31.668Z,18.75
2018-09-13T15:03:00.343Z,18.77
2018-09-13T15:05:28.793Z,18.72
2018-09-13T15:08:02.376Z,18.74
2018-09-13T15:10:33.032Z,18.78
2018-09-13T15:13:01.627Z,18.84
2018-09-13T15:15:30.157Z,18.86
2018-09-13T15:17:58.833Z,18.80
2018-09-13T15:20:27.844Z,18.67
2018-09-13T15:22:56.526Z,18.66
2018-09-13T15:25:25.041Z,18.61
2018-09-13T15:27:54.053Z,18.50
2018-09-13T15:30:22.554Z,18.45
2018-09-13T15:32:51.938Z,18.48
2018-09-13T15:35:21.101Z,18.53
2018-09-13T15:37:49.935Z,18.59
2018-09-13T15:40:19.754Z,18.65
2018-09-13T15:42:48.402Z,18.68
2018-09-13T15:45:17.003Z,18.69
2018-09-13T15:47:45.551Z,18.71
2018-09-13T15:50:14.619Z,18.72
2018-09-13T15:52:43.231Z,18.67
2018-09-13T15:55:11.889Z,18.60
2018-09-13T15:57:40.503Z,18.48
2018-09-13T16:00:14.413Z,18.47
2018-09-13T16:02:43.075Z,18.46
2018-09-13T16:05:11.623Z,18.48
2018-09-13T16:07:40.293Z,18.51
2018-09-13T16:10:09.145Z,18.55
2018-09-13T16:12:38.155Z,18.58
2018-09-13T16:15:07.631Z,18.59
2018-09-13T16:17:36.305Z,18.59
2018-09-13T16:20:10.177Z,18.61
2018-09-13T16:22:38.866Z,18.62
2018-09-13T16:25:07.917Z,18.64
2018-09-13T16:27:36.859Z,18.65
2018-09-13T16:30:05.595Z,18.66
2018-09-13T16:32:34.136Z,18.65
2018-09-13T16:35:02.950Z,18.63
2018-09-13T16:37:36.664Z,18.64
2018-09-13T16:40:15.911Z,18.65
2018-09-13T16:42:53.864Z,18.68
2018-09-13T16:45:29.771Z,18.71
2018-09-13T16:47:59.889Z,18.67
2018-09-13T16:50:29.142Z,18.65
2018-09-13T16:52:57.926Z,18.63
2018-09-13T16:55:26.637Z,18.61
2018-09-13T16:58:00.423Z,18.58
2018-09-13T17:00:29.187Z,18.53
2018-09-13T17:02:57.762Z,18.50
2018-09-13T17:05:26.496Z,18.51
2018-09-13T17:07:55.109Z,18.50
2018-09-13T17:10:23.746Z,18.48
2018-09-13T17:12:52.320Z,18.38
2018-09-13T17:15:21.847Z,18.34
2018-09-13T17:17:50.501Z,18.29
2018-09-13T17:20:21.594Z,18.27
2018-09-13T17:22:50.231Z,18.21
2018-09-13T17:25:18.931Z,18.23
2018-09-13T17:27:48.674Z,18.25
2018-09-13T17:30:17.684Z,18.33
2018-09-13T17:32:46.340Z,18.37
2018-09-13T17:35:14.993Z,18.40
2018-09-13T17:37:43.696Z,18.43
2018-09-13T17:40:12.457Z,18.47
2018-09-13T17:42:41.458Z,18.46
2018-09-13T17:45:09.965Z,18.39
2018-09-13T17:47:38.738Z,18.32
2018-09-13T17:50:13.359Z,18.34
2018-09-13T17:52:42.040Z,18.32
2018-09-13T17:55:10.667Z,18.31
2018-09-13T17:57:40.796Z,18.35
2018-09-13T18:00:10.911Z,18.37
2018-09-13T18:02:39.696Z,18.41
2018-09-13T18:05:08.718Z,18.39
2018-09-13T18:07:37.294Z,18.37
2018-09-13T18:10:10.945Z,18.36
2018-09-13T18:12:39.923Z,18.35
2018-09-13T18:15:08.707Z,18.34
2018-09-13T18:17:37.231Z,18.37
2018-09-13T18:20:05.869Z,18.34
2018-09-13T18:22:35.085Z,18.34
2018-09-13T18:25:04.761Z,18.31
2018-09-13T18:27:35.252Z,18.27
2018-09-13T18:30:04.202Z,18.26
2018-09-13T18:32:32.821Z,18.25
2018-09-13T18:35:01.527Z,18.22
2018-09-13T18:37:31.181Z,18.22
2018-09-13T18:40:01.315Z,18.23
2018-09-13T18:42:29.852Z,18.23
2018-09-13T18:44:58.739Z,18.21
2018-09-13T18:47:27.624Z,18.20
2018-09-13T18:49:56.459Z,18.14
2018-09-13T18:52:26.132Z,18.12
2018-09-13T18:54:54.995Z,18.14
2018-09-13T18:57:23.866Z,18.16
2018-09-13T18:59:52.639Z,18.09
2018-09-13T19:02:21.459Z,18.07
2018-09-13T19:04:50.154Z,18.09
2018-09-13T19:07:18.655Z,18.07
2018-09-13T19:09:47.297Z,17.99
2018-09-13T19:12:15.800Z,17.95
2018-09-13T19:14:45.147Z,17.91
2018-09-13T19:17:14.395Z,17.85
2018-09-13T19:19:45.040Z,17.81
2018-09-13T19:22:13.752Z,17.81
2018-09-13T19:24:47.659Z,17.80
2018-09-13T19:27:16.602Z,17.81
2018-09-13T19:29:49.803Z,17.81
2018-09-13T19:32:22.157Z,17.80
2018-09-13T19:34:51.917Z,17.78
2018-09-13T19:37:23.362Z,17.77
2018-09-13T19:39:52.049Z,17.79
2018-09-13T19:42:21.425Z,17.80
2018-09-13T19:44:50.345Z,17.83
2018-09-13T19:47:18.931Z,17.80
2018-09-13T19:49:47.379Z,17.78
2018-09-13T19:52:16.092Z,17.69
2018-09-13T19:54:44.855Z,17.70
2018-09-13T20:00:01.268Z,17.64
2018-09-13T20:02:32.366Z,17.56
2018-09-13T20:05:00.885Z,17.58
2018-09-13T20:07:29.329Z,17.62
2018-09-13T20:09:58.116Z,17.62
2018-09-13T20:12:26.766Z,17.66
2018-09-13T20:14:55.777Z,17.67
2018-09-13T20:17:25.328Z,17.66
2018-09-13T20:19:53.937Z,17.60
2018-09-13T20:22:23.004Z,17.56
2018-09-13T20:24:51.620Z,17.59
2018-09-13T20:27:20.475Z,17.59
2018-09-13T20:29:49.091Z,17.57
2018-09-13T20:32:17.729Z,17.57
2018-09-13T20:34:46.309Z,17.56
2018-09-13T20:37:16.075Z,17.56
2018-09-13T20:39:45.185Z,17.52
2018-09-13T20:42:13.695Z,17.53
2018-09-13T20:44:42.136Z,17.54
2018-09-13T20:47:10.718Z,17.58
2018-09-13T20:49:39.190Z,17.58
2018-09-13T20:52:07.853Z,17.61
2018-09-13T20:54:36.484Z,17.60
2018-09-13T20:57:06.859Z,17.57
2018-09-13T20:59:37.495Z,17.60
2018-09-13T21:02:10.869Z,17.57
2018-09-13T21:04:41.520Z,17.54
2018-09-13T21:07:14.075Z,17.51
2018-09-13T21:09:42.763Z,17.53
2018-09-13T21:12:11.569Z,17.53
2018-09-13T21:14:40.671Z,17.52
2018-09-13T21:17:09.277Z,17.48
2018-09-13T21:19:37.909Z,17.47
2018-09-13T21:22:06.429Z,17.48
2018-09-13T21:24:35.024Z,17.47
2018-09-13T21:27:03.686Z,17.40
2018-09-13T21:29:32.516Z,17.40
2018-09-13T21:32:01.077Z,17.39
2018-09-13T21:34:29.807Z,17.35
2018-09-13T21:36:58.251Z,17.33
2018-09-13T21:39:26.775Z,17.31
2018-09-13T21:41:55.274Z,17.35
2018-09-13T21:44:23.906Z,17.32
2018-09-13T21:46:52.579Z,17.29
2018-09-13T21:49:21.518Z,17.32
2018-09-13T21:51:50.588Z,17.35
2018-09-13T21:54:19.101Z,17.37
2018-09-13T21:56:48.011Z,17.40
2018-09-13T21:59:16.706Z,17.43
2018-09-13T22:01:45.367Z,17.47
2018-09-13T22:04:13.865Z,17.49
2018-09-13T22:06:42.431Z,17.52
2018-09-13T22:09:11.282Z,17.50
2018-09-13T22:11:41.288Z,17.47
2018-09-13T22:14:09.922Z,17.45
2018-09-13T22:16:38.670Z,17.49
2018-09-13T22:19:07.403Z,17.52
2018-09-13T22:21:35.934Z,17.53
2018-09-13T22:24:05.177Z,17.53
2018-09-13T22:26:34.376Z,17.53
2018-09-13T22:29:03.040Z,17.53
2018-09-13T22:31:31.898Z,17.53
2018-09-13T22:34:00.337Z,17.58
2018-09-13T22:36:28.827Z,17.59
2018-09-13T22:38:57.232Z,17.62
2018-09-13T22:41:25.776Z,17.60
2018-09-13T22:43:54.518Z,17.61
2018-09-13T22:46:24.215Z,17.61
2018-09-13T22:48:52.839Z,17.61
2018-09-13T22:51:23.119Z,17.60
2018-09-13T22:53:51.697Z,17.57
2018-09-13T22:56:20.159Z,17.55
2018-09-13T22:58:48.984Z,17.55
2018-09-13T23:01:17.446Z,17.55
2018-09-13T23:03:46.034Z,17.57
2018-09-13T23:06:14.498Z,17.57
2018-09-13T23:08:43.007Z,17.56
2018-09-13T23:11:11.882Z,17.55
2018-09-13T23:13:40.532Z,17.54
2018-09-13T23:16:09.526Z,17.54
2018-09-13T23:18:38.252Z,17.51
2018-09-13T23:21:07.170Z,17.50
2018-09-13T23:23:35.894Z,17.39
2018-09-13T23:26:04.414Z,17.33
2018-09-13T23:28:33.051Z,17.32
2018-09-13T23:31:01.525Z,17.31
2018-09-13T23:33:29.983Z,17.33
2018-09-13T23:35:58.447Z,17.35
2018-09-13T23:38:26.993Z,17.35
2018-09-13T23:40:55.611Z,17.36
2018-09-13T23:43:24.279Z,17.38
2018-09-13T23:45:52.960Z,17.37
2018-09-13T23:48:21.871Z,17.37
2018-09-13T23:50:50.352Z,17.35
2018-09-13T23:53:19.038Z,17.37
2018-09-13T23:55:47.519Z,17.36
2018-09-13T23:58:16.947Z,17.36
